createdAt,value
2022-10-14T00:00:03.034Z,978.87
2022-10-14T00:01:03.281Z,978.92
2022-10-14T00:02:08.452Z,978.78
2022-10-14T00:03:03.211Z,978.87
2022-10-14T00:04:03.225Z,978.90
2022-10-14T00:05:03.315Z,978.87
2022-10-14T00:06:03.325Z,978.87
2022-10-14T00:07:03.282Z,978.92
2022-10-14T00:08:03.336Z,978.75
2022-10-14T00:09:03.216Z,978.81
2022-10-14T00:10:08.853Z,978.81
2022-10-14T00:11:03.592Z,978.67
2022-10-14T00:12:08.515Z,978.87
2022-10-14T00:13:13.606Z,978.98
2022-10-14T00:14:03.503Z,978.73
2022-10-14T00:15:08.584Z,978.84
2022-10-14T00:16:03.496Z,978.90
2022-10-14T00:17:03.627Z,978.87
2022-10-14T00:18:03.573Z,978.87
2022-10-14T00:20:03.607Z,978.81
2022-10-14T00:21:03.661Z,978.81
2022-10-14T00:22:08.815Z,978.84
2022-10-14T00:23:08.888Z,978.90
2022-10-14T00:24:03.773Z,978.81
2022-10-14T00:26:03.131Z,978.81
2022-10-14T00:27:03.034Z,978.84
2022-10-14T00:28:07.991Z,978.67
2022-10-14T00:29:03.107Z,978.87
2022-10-14T00:30:08.148Z,978.84
2022-10-14T00:31:08.177Z,978.79
2022-10-14T00:32:03.085Z,978.81
2022-10-14T00:33:03.537Z,978.62
2022-10-14T00:34:03.491Z,978.84
2022-10-14T00:35:03.499Z,978.64
2022-10-14T00:36:03.468Z,978.76
2022-10-14T00:37:08.694Z,978.70
2022-10-14T00:38:08.162Z,978.73
2022-10-14T00:39:03.090Z,978.79
2022-10-14T00:40:08.650Z,978.76
2022-10-14T00:41:03.597Z,978.73
2022-10-14T00:42:03.218Z,978.76
2022-10-14T00:43:03.371Z,978.79
2022-10-14T00:44:08.430Z,978.73
2022-10-14T00:45:03.325Z,978.73
2022-10-14T00:46:03.275Z,978.70
2022-10-14T00:47:03.173Z,978.67
2022-10-14T00:48:03.186Z,978.79
2022-10-14T00:49:08.153Z,978.70
2022-10-14T00:50:03.115Z,978.70
2022-10-14T00:51:03.170Z,978.65
2022-10-14T00:52:08.484Z,978.73
2022-10-14T00:53:03.389Z,978.71
2022-10-14T00:54:08.394Z,978.79
2022-10-14T00:55:08.501Z,978.76
2022-10-14T00:56:03.536Z,978.68
2022-10-14T00:57:03.585Z,978.79
2022-10-14T00:58:03.526Z,978.82
2022-10-14T00:59:03.677Z,978.68
2022-10-14T01:00:03.674Z,978.71
2022-10-14T01:01:03.788Z,978.71
2022-10-14T01:02:08.789Z,978.62
2022-10-14T01:03:03.844Z,978.71
2022-10-14T01:04:02.903Z,978.74
2022-10-14T01:05:03.005Z,978.68
2022-10-14T01:06:03.122Z,978.65
2022-10-14T01:07:03.026Z,978.62
2022-10-14T01:08:02.986Z,978.74
2022-10-14T01:09:03.062Z,978.71
2022-10-14T01:10:02.999Z,978.54
2022-10-14T01:11:02.996Z,978.71
2022-10-14T01:12:29.353Z,978.68
2022-10-14T01:13:03.034Z,978.65
2022-10-14T01:14:03.093Z,978.71
2022-10-14T01:15:03.237Z,978.82
2022-10-14T01:16:03.160Z,978.68
2022-10-14T01:17:03.262Z,978.62
2022-10-14T01:18:03.208Z,978.59
2022-10-14T01:19:08.299Z,978.71
2022-10-14T01:20:03.220Z,978.71
2022-10-14T01:21:08.367Z,978.68
2022-10-14T01:22:03.311Z,978.76
2022-10-14T01:23:08.377Z,978.74
2022-10-14T01:24:03.222Z,978.71
2022-10-14T01:25:08.351Z,978.56
2022-10-14T01:26:03.218Z,978.71
2022-10-14T01:27:03.136Z,978.65
2022-10-14T01:28:03.145Z,978.79
2022-10-14T01:29:03.260Z,978.62
2022-10-14T01:30:03.214Z,978.71
2022-10-14T01:31:03.341Z,978.53
2022-10-14T01:32:03.341Z,978.56
2022-10-14T01:33:02.902Z,978.59
2022-10-14T01:34:03.446Z,978.65
2022-10-14T01:35:03.507Z,978.65
2022-10-14T01:36:08.595Z,978.68
2022-10-14T01:37:03.564Z,978.65
2022-10-14T01:38:03.466Z,978.59
2022-10-14T01:39:03.482Z,978.59
2022-10-14T01:40:03.570Z,978.73
2022-10-14T01:41:08.541Z,978.59
2022-10-14T01:42:03.654Z,978.70
2022-10-14T01:43:03.603Z,978.70
2022-10-14T01:44:03.657Z,978.62
2022-10-14T01:45:08.839Z,978.65
2022-10-14T01:46:03.701Z,978.47
2022-10-14T01:47:03.813Z,978.59
2022-10-14T01:48:03.821Z,978.53
2022-10-14T01:49:03.850Z,978.45
2022-10-14T01:50:03.902Z,978.59
2022-10-14T01:51:02.966Z,978.65
2022-10-14T01:52:02.902Z,978.53
2022-10-14T01:53:08.062Z,978.50
2022-10-14T01:54:03.183Z,978.53
2022-10-14T01:55:08.246Z,978.45
2022-10-14T01:56:03.238Z,978.53
2022-10-14T01:57:03.322Z,978.56
2022-10-14T01:58:03.263Z,978.53
2022-10-14T01:59:03.307Z,978.50
2022-10-14T02:00:03.363Z,978.47
2022-10-14T02:01:03.510Z,978.50
2022-10-14T02:02:03.727Z,978.43
2022-10-14T02:03:03.601Z,978.44
2022-10-14T02:04:03.670Z,978.50
2022-10-14T02:07:02.947Z,978.44
2022-10-14T02:08:03.865Z,978.43
2022-10-14T02:09:03.014Z,978.31
2022-10-14T02:10:03.073Z,978.34
2022-10-14T02:11:03.027Z,978.44
2022-10-14T02:12:03.141Z,978.42
2022-10-14T02:13:03.049Z,978.31
2022-10-14T02:14:03.167Z,978.20
2022-10-14T02:15:03.115Z,978.22
2022-10-14T02:16:03.215Z,978.42
2022-10-14T02:17:03.375Z,978.25
2022-10-14T02:18:08.396Z,978.34
2022-10-14T02:19:08.337Z,978.25
2022-10-14T02:20:03.356Z,978.28
2022-10-14T02:21:03.469Z,978.31
2022-10-14T02:22:03.420Z,978.22
2022-10-14T02:23:03.505Z,978.19
2022-10-14T02:24:03.443Z,978.22
2022-10-14T02:25:03.557Z,978.28
2022-10-14T02:26:03.606Z,978.33
2022-10-14T02:27:03.589Z,978.28
2022-10-14T02:28:08.679Z,978.19
2022-10-14T02:29:03.758Z,978.33
2022-10-14T02:31:03.799Z,978.30
2022-10-14T02:32:08.938Z,978.28
2022-10-14T02:33:03.799Z,978.25
2022-10-14T02:34:03.894Z,978.16
2022-10-14T02:35:03.837Z,978.25
2022-10-14T02:36:03.850Z,978.16
2022-10-14T02:37:03.026Z,978.19
2022-10-14T02:38:02.972Z,978.10
2022-10-14T02:39:03.015Z,978.13
2022-10-14T02:40:03.073Z,978.16
2022-10-14T02:41:03.106Z,978.13
2022-10-14T02:42:03.077Z,978.19
2022-10-14T02:43:03.089Z,978.22
2022-10-14T02:44:03.053Z,978.16
2022-10-14T02:45:03.079Z,978.05
2022-10-14T02:46:08.178Z,977.99
2022-10-14T02:47:03.159Z,978.05
2022-10-14T02:48:03.184Z,978.19
2022-10-14T02:49:03.161Z,978.04
2022-10-14T02:50:03.151Z,978.13
2022-10-14T02:51:03.661Z,978.10
2022-10-14T02:52:03.874Z,978.13
2022-10-14T02:53:08.846Z,978.10
2022-10-14T02:54:08.258Z,978.16
2022-10-14T02:55:08.279Z,978.02
2022-10-14T02:56:13.252Z,977.93
2022-10-14T02:57:03.185Z,978.07
2022-10-14T02:58:03.188Z,978.04
2022-10-14T02:59:03.308Z,978.10
2022-10-14T03:00:03.299Z,978.10
2022-10-14T03:01:03.350Z,978.07
2022-10-14T03:02:03.616Z,978.07
2022-10-14T03:03:03.439Z,978.01
2022-10-14T03:04:03.533Z,978.10
2022-10-14T03:05:03.653Z,978.13
2022-10-14T03:06:08.629Z,977.98
2022-10-14T03:07:03.602Z,978.04
2022-10-14T03:08:03.620Z,978.10
2022-10-14T03:09:03.614Z,978.04
2022-10-14T03:10:03.638Z,978.07
2022-10-14T03:11:03.724Z,978.04
2022-10-14T03:12:03.793Z,978.04
2022-10-14T03:13:03.864Z,978.01
2022-10-14T03:14:08.899Z,978.01
2022-10-14T03:15:03.834Z,977.95
2022-10-14T03:16:03.795Z,978.01
2022-10-14T03:17:03.005Z,978.01
2022-10-14T03:18:02.907Z,977.84
2022-10-14T03:19:02.931Z,978.07
2022-10-14T03:20:02.948Z,978.12
2022-10-14T03:22:02.907Z,978.09
2022-10-14T03:23:02.963Z,978.12
2022-10-14T03:24:02.968Z,977.98
2022-10-14T03:25:03.071Z,978.09
2022-10-14T03:26:03.134Z,978.06
2022-10-14T03:27:03.251Z,978.01
2022-10-14T03:28:08.184Z,977.95
2022-10-14T03:29:03.231Z,978.03
2022-10-14T03:30:03.290Z,977.98
2022-10-14T03:31:03.254Z,977.98
2022-10-14T03:32:08.373Z,978.03
2022-10-14T03:33:03.447Z,977.98
2022-10-14T03:34:03.487Z,978.03
2022-10-14T03:35:03.407Z,977.86
2022-10-14T03:36:03.414Z,977.92
2022-10-14T03:38:08.395Z,977.97
2022-10-14T03:39:03.392Z,977.97
2022-10-14T03:40:03.512Z,978.06
2022-10-14T03:41:03.533Z,977.94
2022-10-14T03:42:03.524Z,977.92
2022-10-14T03:43:08.678Z,977.94
2022-10-14T03:44:03.702Z,977.97
2022-10-14T03:45:03.720Z,977.89
2022-10-14T03:46:03.743Z,977.89
2022-10-14T03:47:03.729Z,977.91
2022-10-14T03:48:03.719Z,977.94
2022-10-14T03:49:03.674Z,977.88
2022-10-14T03:50:03.758Z,977.86
2022-10-14T03:51:03.693Z,977.88
2022-10-14T03:52:03.750Z,977.86
2022-10-14T03:53:03.767Z,978.00
2022-10-14T03:54:03.823Z,977.94
2022-10-14T03:55:08.817Z,977.88
2022-10-14T03:56:03.814Z,977.83
2022-10-14T03:57:02.967Z,977.94
2022-10-14T03:58:07.882Z,977.80
2022-10-14T03:59:02.924Z,977.80
2022-10-14T04:00:02.945Z,977.85
2022-10-14T04:01:03.021Z,977.88
2022-10-14T04:02:08.177Z,977.85
2022-10-14T04:03:03.063Z,977.88
2022-10-14T04:04:03.071Z,977.68
2022-10-14T04:05:08.173Z,977.88
2022-10-14T04:06:08.165Z,977.77
2022-10-14T04:07:08.235Z,977.71
2022-10-14T04:08:08.172Z,977.80
2022-10-14T04:09:08.252Z,977.74
2022-10-14T04:10:03.224Z,977.82
2022-10-14T04:11:08.284Z,977.77
2022-10-14T04:12:03.239Z,977.79
2022-10-14T04:13:08.305Z,977.71
2022-10-14T04:14:03.182Z,977.77
2022-10-14T04:15:03.242Z,977.65
2022-10-14T04:16:03.297Z,977.68
2022-10-14T04:17:03.348Z,977.60
2022-10-14T04:18:03.404Z,977.57
2022-10-14T04:19:03.788Z,977.74
2022-10-14T04:20:03.489Z,977.54
2022-10-14T04:21:03.625Z,977.71
2022-10-14T04:22:08.778Z,977.60
2022-10-14T04:23:08.913Z,977.54
2022-10-14T04:24:08.740Z,977.73
2022-10-14T04:25:04.117Z,977.65
2022-10-14T04:26:03.136Z,977.79
2022-10-14T04:27:03.189Z,977.52
2022-10-14T04:28:03.196Z,977.60
2022-10-14T04:29:03.339Z,977.71
2022-10-14T04:30:03.116Z,977.52
2022-10-14T04:31:03.249Z,977.52
2022-10-14T04:32:03.178Z,977.68
2022-10-14T04:34:03.128Z,977.60
2022-10-14T04:35:03.196Z,977.60
2022-10-14T04:36:03.256Z,977.46
2022-10-14T04:37:03.302Z,977.51
2022-10-14T04:38:08.317Z,977.54
2022-10-14T04:39:08.262Z,977.79
2022-10-14T04:40:03.335Z,977.68
2022-10-14T04:41:03.370Z,977.60
2022-10-14T04:42:03.343Z,977.51
2022-10-14T04:43:08.518Z,977.60
2022-10-14T04:44:03.392Z,977.46
2022-10-14T04:45:03.471Z,977.60
2022-10-14T04:46:03.468Z,977.57
2022-10-14T04:47:08.574Z,977.73
2022-10-14T04:48:03.526Z,977.54
2022-10-14T04:49:03.572Z,977.51
2022-10-14T04:50:03.648Z,977.60
2022-10-14T04:51:04.979Z,977.48
2022-10-14T04:52:03.787Z,977.51
2022-10-14T04:53:03.804Z,977.45
2022-10-14T04:54:03.857Z,977.54
2022-10-14T04:55:03.890Z,977.48
2022-10-14T04:56:08.206Z,977.54
2022-10-14T04:57:03.211Z,977.45
2022-10-14T04:58:03.338Z,977.57
2022-10-14T04:59:03.389Z,977.57
2022-10-14T05:00:03.497Z,977.48
2022-10-14T05:01:03.511Z,977.39
2022-10-14T05:02:08.641Z,977.48
2022-10-14T05:03:03.642Z,977.25
2022-10-14T05:04:03.732Z,977.48
2022-10-14T05:05:08.854Z,977.34
2022-10-14T05:06:03.810Z,977.34
2022-10-14T05:07:03.923Z,977.39
2022-10-14T05:08:08.953Z,977.45
2022-10-14T05:09:02.890Z,977.51
2022-10-14T05:10:02.953Z,977.42
2022-10-14T05:11:02.996Z,977.48
2022-10-14T05:12:03.089Z,977.39
2022-10-14T05:13:08.073Z,977.28
2022-10-14T05:14:03.107Z,977.31
2022-10-14T05:15:03.183Z,977.31
2022-10-14T05:16:03.177Z,977.36
2022-10-14T05:17:03.188Z,977.39
2022-10-14T05:18:03.084Z,977.45
2022-10-14T05:19:03.189Z,977.42
2022-10-14T05:20:03.147Z,977.36
2022-10-14T05:21:08.219Z,977.36
2022-10-14T05:22:08.230Z,977.42
2022-10-14T05:23:03.256Z,977.45
2022-10-14T05:24:08.378Z,977.36
2022-10-14T05:25:08.359Z,977.45
2022-10-14T05:26:03.410Z,977.51
2022-10-14T05:27:03.398Z,977.36
2022-10-14T05:28:03.502Z,977.51
2022-10-14T05:29:03.440Z,977.36
2022-10-14T05:30:03.494Z,977.45
2022-10-14T05:31:08.402Z,977.51
2022-10-14T05:32:03.369Z,977.56
2022-10-14T05:33:03.518Z,977.42
2022-10-14T05:34:03.653Z,977.45
2022-10-14T05:35:03.737Z,977.51
2022-10-14T05:36:03.912Z,977.51
2022-10-14T05:37:03.753Z,977.39
2022-10-14T05:38:09.751Z,977.45
2022-10-14T05:39:03.842Z,977.48
2022-10-14T05:40:03.263Z,977.42
2022-10-14T05:41:03.373Z,977.37
2022-10-14T05:42:03.329Z,977.34
2022-10-14T05:43:03.408Z,977.42
2022-10-14T05:44:03.491Z,977.56
2022-10-14T05:45:03.569Z,977.51
2022-10-14T05:46:03.706Z,977.54
2022-10-14T05:47:03.752Z,977.45
2022-10-14T05:48:02.974Z,977.51
2022-10-14T05:49:08.096Z,977.31
2022-10-14T05:50:03.023Z,977.48
2022-10-14T05:51:08.123Z,977.51
2022-10-14T05:52:08.042Z,977.42
2022-10-14T05:53:03.026Z,977.39
2022-10-14T05:54:03.177Z,977.51
2022-10-14T05:55:03.189Z,977.51
2022-10-14T05:56:03.135Z,977.56
2022-10-14T05:57:03.132Z,977.42
2022-10-14T05:58:03.196Z,977.45
2022-10-14T05:59:08.281Z,977.45
2022-10-14T06:00:08.347Z,977.51
2022-10-14T06:01:08.244Z,977.51
2022-10-14T06:02:03.238Z,977.51
2022-10-14T06:03:03.254Z,977.62
2022-10-14T06:04:03.843Z,977.56
2022-10-14T06:05:03.155Z,977.59
2022-10-14T06:06:03.211Z,977.56
2022-10-14T06:07:08.349Z,977.51
2022-10-14T06:08:03.233Z,977.48
2022-10-14T06:10:03.252Z,977.67
2022-10-14T06:11:08.271Z,977.56
2022-10-14T06:12:03.179Z,977.51
2022-10-14T06:13:08.276Z,977.59
2022-10-14T06:14:03.156Z,977.51
2022-10-14T06:15:08.175Z,977.51
2022-10-14T06:16:03.323Z,977.53
2022-10-14T06:17:03.438Z,977.56
2022-10-14T06:18:03.341Z,977.59
2022-10-14T06:19:03.373Z,977.51
2022-10-14T06:20:03.464Z,977.59
2022-10-14T06:21:08.911Z,977.72
2022-10-14T06:22:02.971Z,977.67
2022-10-14T06:23:02.971Z,977.59
2022-10-14T06:24:03.012Z,977.67
2022-10-14T06:25:08.024Z,977.73
2022-10-14T06:26:03.103Z,977.75
2022-10-14T06:27:03.160Z,977.78
2022-10-14T06:28:08.419Z,977.72
2022-10-14T06:29:08.370Z,977.75
2022-10-14T06:30:03.338Z,977.67
2022-10-14T06:31:03.361Z,977.75
2022-10-14T06:32:03.309Z,977.75
2022-10-14T06:33:08.284Z,977.75
2022-10-14T06:34:03.304Z,977.81
2022-10-14T06:35:03.409Z,977.84
2022-10-14T06:36:03.567Z,977.78
2022-10-14T06:37:03.576Z,977.87
2022-10-14T06:38:03.713Z,977.92
2022-10-14T06:39:03.698Z,977.84
2022-10-14T06:40:03.627Z,977.84
2022-10-14T06:41:03.751Z,977.81
2022-10-14T06:42:13.393Z,977.72
2022-10-14T06:43:03.057Z,977.84
2022-10-14T06:44:03.041Z,978.01
2022-10-14T06:45:13.219Z,977.89
2022-10-14T06:46:03.237Z,977.89
2022-10-14T06:47:03.257Z,977.92
2022-10-14T06:48:08.350Z,977.89
2022-10-14T06:49:03.351Z,977.92
2022-10-14T06:50:03.403Z,977.89
2022-10-14T06:51:03.491Z,977.84
2022-10-14T06:52:03.481Z,977.81
2022-10-14T06:53:03.543Z,977.98
2022-10-14T06:54:03.533Z,978.01
2022-10-14T06:55:08.671Z,977.98
2022-10-14T06:56:03.643Z,977.84
2022-10-14T06:57:08.785Z,977.89
2022-10-14T06:58:03.825Z,977.89
2022-10-14T06:59:03.893Z,977.89
2022-10-14T07:00:03.077Z,977.95
2022-10-14T07:01:03.290Z,977.84
2022-10-14T07:02:03.424Z,977.84
2022-10-14T07:03:03.139Z,977.87
2022-10-14T07:04:03.275Z,977.84
2022-10-14T07:05:03.311Z,977.92
2022-10-14T07:06:08.243Z,977.84
2022-10-14T07:07:03.279Z,977.69
2022-10-14T07:08:03.391Z,977.86
2022-10-14T07:09:08.438Z,977.78
2022-10-14T07:10:03.424Z,977.83
2022-10-14T07:11:03.500Z,977.69
2022-10-14T07:12:03.865Z,977.78
2022-10-14T07:13:03.911Z,977.66
2022-10-14T07:14:13.954Z,977.66
2022-10-14T07:15:02.932Z,977.66
2022-10-14T07:16:03.041Z,977.71
2022-10-14T07:17:03.121Z,977.66
2022-10-14T07:18:08.190Z,977.71
2022-10-14T07:19:03.172Z,977.74
2022-10-14T07:20:03.153Z,977.74
2022-10-14T07:21:03.317Z,977.76
2022-10-14T07:22:03.193Z,977.76
2022-10-14T07:23:03.189Z,977.70
2022-10-14T07:24:03.296Z,977.70
2022-10-14T07:25:03.260Z,977.70
2022-10-14T07:26:03.349Z,977.56
2022-10-14T07:28:03.421Z,977.70
2022-10-14T07:29:03.554Z,977.69
2022-10-14T07:30:03.371Z,977.72
2022-10-14T07:31:03.386Z,977.69
2022-10-14T07:32:03.421Z,977.61
2022-10-14T07:33:03.564Z,977.55
2022-10-14T07:34:03.572Z,977.61
2022-10-14T07:36:03.658Z,977.49
2022-10-14T07:37:03.577Z,977.58
2022-10-14T07:38:03.668Z,977.58
2022-10-14T07:39:03.626Z,977.46
2022-10-14T07:40:08.757Z,977.58
2022-10-14T07:41:03.663Z,977.71
2022-10-14T07:42:08.712Z,977.60
2022-10-14T07:43:03.626Z,977.60
2022-10-14T07:44:03.576Z,977.54
2022-10-14T07:45:08.747Z,977.54
2022-10-14T07:46:03.827Z,977.54
2022-10-14T07:47:03.908Z,977.48
2022-10-14T07:48:02.982Z,977.62
2022-10-14T07:49:07.939Z,977.62
2022-10-14T07:50:03.864Z,977.59
2022-10-14T07:51:03.893Z,977.48
2022-10-14T07:53:03.022Z,977.62
2022-10-14T07:54:03.118Z,977.59
2022-10-14T07:55:08.153Z,977.72
2022-10-14T07:56:13.160Z,977.66
2022-10-14T07:57:03.110Z,977.66
2022-10-14T07:58:13.235Z,977.61
2022-10-14T07:59:03.149Z,977.69
2022-10-14T08:00:03.220Z,977.61
2022-10-14T08:01:03.233Z,977.77
2022-10-14T08:02:03.346Z,977.66
2022-10-14T08:03:08.410Z,977.71
2022-10-14T08:04:03.418Z,977.55
2022-10-14T08:05:37.973Z,977.68
2022-10-14T08:06:03.521Z,977.71
2022-10-14T08:07:03.537Z,977.71
2022-10-14T08:08:03.553Z,977.68
2022-10-14T08:09:13.742Z,977.79
2022-10-14T08:10:08.899Z,977.70
2022-10-14T08:11:03.779Z,977.82
2022-10-14T08:12:08.837Z,977.62
2022-10-14T08:13:03.851Z,977.67
2022-10-14T08:14:08.897Z,977.70
2022-10-14T08:15:03.800Z,977.87
2022-10-14T08:16:03.775Z,977.84
2022-10-14T08:17:04.130Z,977.95
2022-10-14T08:18:03.818Z,977.84
2022-10-14T08:19:03.836Z,977.84
2022-10-14T08:20:09.099Z,977.87
2022-10-14T08:21:08.905Z,977.89
2022-10-14T08:22:02.944Z,977.89
2022-10-14T08:23:02.973Z,977.89
2022-10-14T08:24:03.172Z,977.83
2022-10-14T08:25:03.012Z,977.86
2022-10-14T08:26:03.053Z,977.92
2022-10-14T08:27:03.020Z,977.86
2022-10-14T08:28:03.069Z,977.83
2022-10-14T08:30:11.223Z,977.80
2022-10-14T08:31:03.032Z,977.83
2022-10-14T08:32:07.976Z,977.83
2022-10-14T08:33:03.973Z,977.92
2022-10-14T08:34:13.924Z,977.86
2022-10-14T08:35:08.930Z,977.94
2022-10-14T08:36:08.002Z,977.80
2022-10-14T08:37:03.867Z,977.94
2022-10-14T08:38:08.861Z,977.97
2022-10-14T08:41:03.840Z,977.89
2022-10-14T08:42:07.929Z,977.97
2022-10-14T08:43:08.067Z,978.00
2022-10-14T08:44:03.090Z,977.91
2022-10-14T08:45:03.097Z,978.02
2022-10-14T08:46:03.089Z,978.02
2022-10-14T08:47:03.088Z,977.91
2022-10-14T08:48:03.133Z,978.02
2022-10-14T08:49:03.137Z,978.02
2022-10-14T08:51:03.103Z,977.93
2022-10-14T08:52:03.152Z,977.93
2022-10-14T08:53:03.091Z,978.01
2022-10-14T08:54:03.103Z,977.95
2022-10-14T08:55:03.202Z,978.09
2022-10-14T08:56:03.282Z,977.95
2022-10-14T08:57:03.490Z,977.94
2022-10-14T08:59:08.626Z,977.85
2022-10-14T09:00:03.623Z,978.08
2022-10-14T09:01:13.439Z,978.05
2022-10-14T09:02:03.701Z,977.96
2022-10-14T09:03:03.798Z,978.07
2022-10-14T09:04:08.909Z,978.04
2022-10-14T09:05:08.692Z,978.07
2022-10-14T09:06:08.780Z,978.07
2022-10-14T09:07:03.850Z,978.13
2022-10-14T09:08:08.877Z,978.07
2022-10-14T09:09:03.975Z,978.10
2022-10-14T09:10:03.938Z,978.10
2022-10-14T09:11:02.924Z,978.07
2022-10-14T09:12:03.058Z,978.24
2022-10-14T09:13:03.025Z,978.10
2022-10-14T09:14:03.057Z,978.15
2022-10-14T09:15:03.177Z,978.24
2022-10-14T09:16:03.215Z,978.07
2022-10-14T09:17:03.458Z,978.07
2022-10-14T09:19:03.411Z,978.18
2022-10-14T09:20:03.317Z,978.13
2022-10-14T09:21:03.403Z,978.01
2022-10-14T09:22:08.403Z,978.18
2022-10-14T09:23:03.866Z,978.18
2022-10-14T09:24:08.959Z,978.18
2022-10-14T09:25:03.781Z,978.27
2022-10-14T09:26:02.950Z,978.01
2022-10-14T09:27:03.067Z,978.15
2022-10-14T09:28:03.107Z,977.95
2022-10-14T09:29:03.288Z,978.06
2022-10-14T09:30:08.258Z,978.12
2022-10-14T09:31:03.158Z,978.23
2022-10-14T09:32:03.148Z,978.06
2022-10-14T09:33:08.198Z,978.03
2022-10-14T09:34:08.310Z,978.03
2022-10-14T09:35:03.268Z,978.08
2022-10-14T09:36:08.359Z,978.03
2022-10-14T09:37:08.403Z,978.03
2022-10-14T09:38:03.258Z,978.00
2022-10-14T09:39:08.396Z,978.03
2022-10-14T09:41:03.481Z,977.97
2022-10-14T09:42:08.606Z,977.94
2022-10-14T09:43:03.473Z,978.17
2022-10-14T09:44:03.513Z,978.05
2022-10-14T09:45:03.568Z,978.08
2022-10-14T09:46:03.534Z,978.11
2022-10-14T09:47:03.498Z,978.08
2022-10-14T09:48:03.519Z,978.11
2022-10-14T09:49:03.537Z,978.11
2022-10-14T09:50:08.747Z,978.08
2022-10-14T09:51:03.669Z,978.02
2022-10-14T09:52:03.686Z,978.13
2022-10-14T09:53:03.645Z,978.13
2022-10-14T09:55:03.738Z,978.11
2022-10-14T09:56:08.695Z,978.13
2022-10-14T09:57:03.683Z,978.19
2022-10-14T09:58:03.822Z,978.02
2022-10-14T09:59:13.820Z,978.05
2022-10-14T10:00:03.823Z,978.16
2022-10-14T10:01:03.812Z,978.05
2022-10-14T10:02:03.809Z,978.07
2022-10-14T10:03:03.866Z,978.04
2022-10-14T10:04:03.983Z,978.10
2022-10-14T10:05:03.839Z,978.04
2022-10-14T10:06:08.970Z,978.07
2022-10-14T10:07:08.823Z,977.98
2022-10-14T10:09:08.023Z,978.04
2022-10-14T10:10:03.094Z,977.92
2022-10-14T10:11:07.300Z,977.95
2022-10-14T10:12:03.190Z,978.04
2022-10-14T10:13:03.305Z,977.98
2022-10-14T10:14:03.292Z,977.92
2022-10-14T10:15:03.270Z,977.98
2022-10-14T10:16:03.272Z,977.92
2022-10-14T10:17:03.288Z,977.98
2022-10-14T10:18:03.422Z,978.06
2022-10-14T10:19:03.449Z,977.95
2022-10-14T10:20:08.563Z,977.95
2022-10-14T10:21:03.523Z,977.92
2022-10-14T10:22:03.541Z,977.77
2022-10-14T10:23:03.613Z,977.97
2022-10-14T10:24:03.715Z,978.00
2022-10-14T10:25:08.829Z,977.83
2022-10-14T10:26:08.929Z,977.91
2022-10-14T10:27:03.827Z,977.89
2022-10-14T10:28:08.926Z,977.97
2022-10-14T10:29:03.144Z,977.91
2022-10-14T10:30:08.072Z,977.97
2022-10-14T10:31:03.216Z,977.77
2022-10-14T10:32:03.277Z,977.94
2022-10-14T10:33:03.137Z,977.77
2022-10-14T10:34:03.397Z,977.85
2022-10-14T10:35:03.377Z,978.00
2022-10-14T10:36:03.519Z,978.05
2022-10-14T10:37:02.909Z,977.91
2022-10-14T10:38:03.081Z,977.85
2022-10-14T10:41:03.158Z,977.71
2022-10-14T10:42:03.159Z,977.76
2022-10-14T10:43:03.117Z,977.73
2022-10-14T10:44:03.298Z,977.76
2022-10-14T10:45:03.240Z,977.70
2022-10-14T10:46:03.418Z,977.85
2022-10-14T10:47:03.343Z,977.70
2022-10-14T10:48:03.339Z,977.67
2022-10-14T10:49:03.271Z,977.81
2022-10-14T10:50:03.235Z,977.72
2022-10-14T10:51:03.359Z,977.87
2022-10-14T10:53:03.347Z,977.75
2022-10-14T10:54:08.312Z,977.75
2022-10-14T10:55:08.339Z,977.75
2022-10-14T10:56:03.398Z,977.69
2022-10-14T10:57:03.237Z,977.78
2022-10-14T10:59:03.298Z,977.77
2022-10-14T11:00:03.437Z,977.58
2022-10-14T11:01:03.616Z,977.80
2022-10-14T11:02:03.555Z,977.66
2022-10-14T11:03:03.484Z,977.68
2022-10-14T11:04:03.499Z,977.61
2022-10-14T11:05:03.506Z,977.74
2022-10-14T11:06:03.530Z,977.71
2022-10-14T11:08:03.675Z,977.57
2022-10-14T11:09:03.708Z,977.68
2022-10-14T11:10:03.779Z,977.71
2022-10-14T11:11:03.775Z,977.71
2022-10-14T11:12:03.915Z,977.71
2022-10-14T11:13:03.948Z,977.79
2022-10-14T11:14:08.893Z,977.77
2022-10-14T11:15:03.007Z,977.65
2022-10-14T11:16:03.000Z,977.57
2022-10-14T11:17:03.262Z,977.65
2022-10-14T11:18:08.157Z,977.65
2022-10-14T11:19:03.243Z,977.65
2022-10-14T11:20:08.413Z,977.65
2022-10-14T11:21:03.257Z,977.65
2022-10-14T11:22:08.305Z,977.68
2022-10-14T11:23:03.220Z,977.65
2022-10-14T11:24:03.312Z,977.65
2022-10-14T11:25:03.348Z,977.60
2022-10-14T11:26:03.310Z,977.51
2022-10-14T11:27:03.356Z,977.60
2022-10-14T11:28:03.255Z,977.39
2022-10-14T11:29:03.420Z,977.48
2022-10-14T11:30:03.329Z,977.42
2022-10-14T11:31:08.376Z,977.57
2022-10-14T11:32:03.378Z,977.42
2022-10-14T11:33:03.417Z,977.42
2022-10-14T11:34:03.340Z,977.42
2022-10-14T11:35:03.409Z,977.42
2022-10-14T11:36:03.431Z,977.39
2022-10-14T11:37:03.418Z,977.42
2022-10-14T11:38:03.548Z,977.36
2022-10-14T11:39:03.480Z,977.36
2022-10-14T11:40:03.461Z,977.39
2022-10-14T11:41:03.599Z,977.45
2022-10-14T11:42:03.097Z,977.25
2022-10-14T11:44:08.197Z,977.27
2022-10-14T11:45:03.210Z,977.30
2022-10-14T11:46:08.137Z,977.36
2022-10-14T11:47:08.185Z,977.21
2022-10-14T11:48:03.287Z,977.39
2022-10-14T11:49:03.279Z,977.27
2022-10-14T11:50:03.302Z,977.27
2022-10-14T11:51:03.331Z,977.21
2022-10-14T11:52:03.269Z,977.18
2022-10-14T11:53:03.422Z,977.24
2022-10-14T11:54:03.448Z,977.24
2022-10-14T11:55:03.533Z,977.24
2022-10-14T11:56:08.600Z,977.30
2022-10-14T11:58:03.688Z,977.27
2022-10-14T12:00:03.817Z,977.15
2022-10-14T12:01:03.884Z,977.18
2022-10-14T12:02:02.951Z,977.35
2022-10-14T12:03:03.325Z,977.21
2022-10-14T12:04:03.308Z,977.21
2022-10-14T12:05:03.257Z,977.12
2022-10-14T12:06:03.213Z,977.15
2022-10-14T12:07:03.215Z,977.07
2022-10-14T12:08:08.346Z,977.12
2022-10-14T12:09:03.350Z,977.21
2022-10-14T12:10:03.280Z,977.21
2022-10-14T12:11:03.331Z,977.09
2022-10-14T12:12:13.515Z,977.12
2022-10-14T12:13:08.339Z,977.15
2022-10-14T12:14:03.370Z,977.09
2022-10-14T12:15:03.571Z,977.12
2022-10-14T12:16:03.552Z,977.03
2022-10-14T12:17:03.565Z,977.03
2022-10-14T12:18:03.531Z,977.06
2022-10-14T12:19:03.602Z,977.06
2022-10-14T12:20:03.640Z,977.12
2022-10-14T12:21:08.762Z,977.12
2022-10-14T12:22:03.824Z,977.12
2022-10-14T12:23:08.940Z,977.12
2022-10-14T12:24:03.879Z,977.23
2022-10-14T12:25:02.962Z,977.17
2022-10-14T12:26:02.904Z,977.00
2022-10-14T12:27:03.096Z,977.03
2022-10-14T12:28:03.165Z,977.03
2022-10-14T12:29:04.260Z,977.08
2022-10-14T12:30:03.262Z,976.85
2022-10-14T12:31:03.237Z,977.08
2022-10-14T12:32:03.352Z,976.93
2022-10-14T12:33:08.373Z,976.90
2022-10-14T12:34:03.407Z,977.02
2022-10-14T12:35:03.356Z,976.93
2022-10-14T12:36:03.295Z,976.98
2022-10-14T12:37:03.425Z,976.93
2022-10-14T12:38:03.410Z,977.04
2022-10-14T12:39:03.466Z,976.92
2022-10-14T12:40:13.572Z,976.95
2022-10-14T12:41:03.605Z,976.95
2022-10-14T12:42:03.601Z,976.86
2022-10-14T12:45:03.815Z,976.95
2022-10-14T12:46:03.889Z,976.89
2022-10-14T12:47:03.001Z,976.97
2022-10-14T12:48:03.005Z,976.95
2022-10-14T12:49:03.124Z,976.89
2022-10-14T12:50:03.182Z,976.83
2022-10-14T12:51:08.411Z,976.83
2022-10-14T12:52:03.278Z,976.89
2022-10-14T12:53:03.273Z,976.89
2022-10-14T12:54:03.284Z,976.84
2022-10-14T12:55:08.211Z,976.98
2022-10-14T12:56:03.399Z,976.92
2022-10-14T12:57:03.477Z,976.90
2022-10-14T12:58:03.396Z,977.01
2022-10-14T12:59:03.623Z,976.96